Westville, IN (46391)

5:24 PM CST on December 06, 2016 (GMT -0600)
APRSWXNET | | Change Station

Elev 787 ft 41.52 °N, 86.95 °W | Updated 24 minutes ago

Overcast
Overcast
35 °F
Feels Like 31 °F
N
5
Wind Variable Wind from West
Gusts 10.0 mph

Today
High -- | Low -- °F
--% Chance of Precip.
Yesterday
High -- | Low -- °F
Precip. -- in
Pressure 29.86 in
Visibility 10.0 miles
Clouds Overcast 1500 ft
Windchill 31 °F
Dew Point 31 °F
Humidity 84%
Rainfall in
Snow Depth Not available.
7:00 AM 4:17 PM
Waxing Crescent, 46% visible
SPECI KVPZ 062309Z AUTO 27012KT 10SM OVC015 02/M01 A2986 RMK AO2 T00171011 TSNO
Pressure 29.86 in
Visibility 10.0 miles
Clouds Overcast 1500 ft
Windchill 31 °F
Dew Point 31 °F
Humidity 84%
Rainfall in
Snow Depth Not available.
7:00 AM 4:17 PM
Waxing Crescent, 46% visible
SPECI KVPZ 062309Z AUTO 27012KT 10SM OVC015 02/M01 A2986 RMK AO2 T00171011 TSNO

10-Day Weather Forecast

Almanac

Astronomy

Dec. 06, 2016 Rise Set
Actual Time
Civil Twilight
Nautical Twilight
Astronomical Twilight
Moon
Length of Visible Light
Length of Day
Tomorrow will be .
, % of the Moon is Illuminated

Today's Extremes

State Highs State Lows

Community

WunderPhotos

Upload Photos

1,956,044 photos uploaded!

WunderBlog® & News

Nearby

Air Quality

  Air Quality AQ Index Pollutant
Not available.

Snow Depth

Station Depth Elevation

Earthquake Activity

City Distance Mag. Time & Date
Minimum magnitude displayed is 2.5.

Coastal Water Temperatures

Place Temperature

Stations

Nearby Weather Stations

Station Location Temp. Windchill Dew Point Humidity Wind Precip. Elev Updated Type
                   

Watches & Warnings

There are currently no watches in effect.